Time;durP1;ratioP1;P1;durP2;ratioP2;P2;SDS_P1;SDS_P2;PMS_P1;PMS_P2;Temp;Humidity;BMP_temperature;BMP_pressure;BME280_temperature;BME280_humidity;BME280_pressure;Samples;Min_cycle;Max_cycle;Signal;HPM_P1;HPM_P2
2021/03/15 00:00:48;;;;;;;8.20;4.25;;;;;;;4.38;80.21;100253.63;5070469;28;20055;-74
2021/03/15 00:03:52;;;;;;;10.90;5.13;;;;;;;4.36;80.18;100265.31;5072079;28;20072;-74
2021/03/15 00:06:56;;;;;;;8.40;4.35;;;;;;;4.50;79.81;100276.75;5067690;28;20047;-74
2021/03/15 00:10:01;;;;;;;6.72;4.00;;;;;;;4.63;79.67;100278.63;5056555;28;20395;-72
2021/03/15 00:13:07;;;;;;;9.52;4.30;;;;;;;4.72;79.21;100273.56;5070108;28;20039;-73
2021/03/15 00:16:12;;;;;;;5.93;3.65;;;;;;;4.79;79.21;100266.88;5071632;28;20415;-76
2021/03/15 00:19:16;;;;;;;8.20;4.00;;;;;;;4.87;79.28;100261.94;5067823;28;20510;-75
2021/03/15 00:22:21;;;;;;;9.23;4.28;;;;;;;4.91;79.47;100257.28;5068727;28;20044;-74
2021/03/15 00:25:25;;;;;;;8.20;3.92;;;;;;;4.92;79.36;100251.84;5069062;28;20388;-74
2021/03/15 00:28:29;;;;;;;8.02;3.83;;;;;;;4.96;79.30;100255.16;5070392;28;20384;-76
2021/03/15 00:31:33;;;;;;;10.40;4.38;;;;;;;5.00;79.35;100261.97;5072293;28;20052;-73
2021/03/15 00:34:38;;;;;;;8.82;3.92;;;;;;;4.97;79.04;100263.03;5067932;28;20403;-73
2021/03/15 00:37:43;;;;;;;8.27;4.40;;;;;;;4.92;79.45;100258.97;5069090;28;20055;-73
2021/03/15 00:40:48;;;;;;;9.13;3.88;;;;;;;4.80;79.93;100268.59;5070734;28;20067;-78
2021/03/15 00:43:52;;;;;;;14.30;6.05;;;;;;;4.66;80.76;100268.66;5071647;28;20044;-74
2021/03/15 00:46:56;;;;;;;11.82;5.50;;;;;;;4.46;81.68;100272.59;5072681;28;20052;-74
2021/03/15 00:50:01;;;;;;;10.98;4.80;;;;;;;4.35;82.46;100274.22;5090631;28;20398;-75
2021/03/15 00:53:06;;;;;;;10.35;3.85;;;;;;;4.34;83.09;100275.19;5086346;28;20047;-76
2021/03/15 00:56:11;;;;;;;7.93;4.10;;;;;;;4.34;83.14;100265.41;5111873;28;20050;-76
2021/03/15 00:59:15;;;;;;;8.90;3.58;;;;;;;4.39;82.90;100259.81;5112847;28;20046;-78
2021/03/15 01:02:21;;;;;;;9.45;4.15;;;;;;;4.32;82.31;100261.97;5097031;28;20058;-74
2021/03/15 01:05:56;;;;;;;6.57;3.65;;;;;;;4.32;81.65;100259.31;5097971;28;20047;-74
2021/03/15 01:09:15;;;;;;;7.55;3.17;;;;;;;4.38;81.30;100263.41;5112514;28;20047;-72
2021/03/15 01:12:30;;;;;;;8.07;3.38;;;;;;;4.39;80.60;100258.00;5087144;28;20035;-75
2021/03/15 01:15:37;;;;;;;10.05;3.30;;;;;;;4.45;79.99;100249.63;5089231;28;20042;-74
2021/03/15 01:18:41;;;;;;;9.52;3.53;;;;;;;4.52;79.67;100250.06;5112378;28;20039;-72
2021/03/15 01:21:46;;;;;;;6.15;3.08;;;;;;;4.58;79.43;100263.84;5113670;28;20047;-74
2021/03/15 01:24:50;;;;;;;8.95;3.22;;;;;;;4.64;78.95;100251.09;5114795;28;20047;-74
2021/03/15 01:27:55;;;;;;;9.35;3.38;;;;;;;4.64;78.57;100257.28;5115737;28;20050;-74
2021/03/15 01:31:00;;;;;;;8.05;3.25;;;;;;;4.56;78.89;100252.47;5111711;28;20059;-73
2021/03/15 01:34:04;;;;;;;6.65;3.20;;;;;;;4.58;78.85;100255.00;5112834;28;20051;-74
2021/03/15 01:37:08;;;;;;;8.35;3.38;;;;;;;4.58;78.64;100247.03;5114044;28;20047;-71
2021/03/15 01:40:13;;;;;;;12.00;3.40;;;;;;;4.50;78.41;100247.53;5115086;28;20074;-73
2021/03/15 01:43:17;;;;;;;7.40;3.08;;;;;;;4.38;78.58;100243.00;5111160;28;20386;-74
2021/03/15 01:46:22;;;;;;;10.70;3.38;;;;;;;4.31;78.56;100240.84;5112011;28;20517;-76
2021/03/15 01:49:26;;;;;;;6.57;2.65;;;;;;;4.31;78.21;100236.38;5112961;28;20043;-71
2021/03/15 01:52:31;;;;;;;10.52;3.45;;;;;;;4.29;78.24;100240.94;5101853;28;20390;-74
2021/03/15 01:55:36;;;;;;;6.43;3.50;;;;;;;4.34;77.47;100241.50;5115905;28;20046;-74
2021/03/15 01:58:41;;;;;;;6.20;2.63;;;;;;;4.32;77.13;100245.22;5111764;28;20042;-73
2021/03/15 02:01:46;;;;;;;6.32;3.15;;;;;;;4.31;76.55;100236.38;5088974;28;20055;-74
2021/03/15 02:04:51;;;;;;;8.38;2.97;;;;;;;4.25;76.34;100233.25;5114021;28;20051;-72
2021/03/15 02:07:55;;;;;;;6.82;3.00;;;;;;;4.28;75.97;100231.25;5115120;28;20050;-74
2021/03/15 02:11:08;;;;;;;5.05;2.50;;;;;;;4.36;75.59;100231.63;5098496;28;20042;-71
2021/03/15 02:14:40;;;;;;;7.25;2.90;;;;;;;4.32;75.34;100231.94;5114274;28;20070;-73
2021/03/15 02:18:25;;;;;;;7.97;2.65;;;;;;;4.34;74.87;100233.53;5112296;28;20078;-72
2021/03/15 02:22:00;;;;;;;4.82;2.80;;;;;;;4.34;74.06;100228.22;5113437;28;20391;-71
2021/03/15 02:25:18;;;;;;;4.97;2.38;;;;;;;4.38;73.44;100220.88;5111910;28;20043;-73
2021/03/15 02:29:06;;;;;;;9.55;3.03;;;;;;;4.41;73.37;100226.88;5110846;28;20434;-73
2021/03/15 02:32:22;;;;;;;4.75;2.70;;;;;;;4.37;73.10;100220.03;5113766;28;20050;-72
2021/03/15 02:35:33;;;;;;;8.63;3.08;;;;;;;4.39;72.67;100223.47;5099685;28;20043;-73
2021/03/15 02:38:42;;;;;;;8.70;3.33;;;;;;;4.33;72.56;100207.91;5115067;28;20054;-75
2021/03/15 02:41:47;;;;;;;6.32;2.92;;;;;;;4.30;71.88;100204.59;5112097;28;20050;-73
2021/03/15 02:44:54;;;;;;;5.28;2.75;;;;;;;4.33;71.19;100199.06;5113346;28;20051;-75
2021/03/15 02:48:02;;;;;;;6.15;2.70;;;;;;;4.26;70.83;100198.63;5109972;28;20051;-74
2021/03/15 02:51:07;;;;;;;7.40;2.72;;;;;;;4.31;70.38;100201.84;5111726;28;20053;-74
2021/03/15 02:54:13;;;;;;;7.63;2.60;;;;;;;4.26;70.17;100198.63;5113164;28;20051;-74
2021/03/15 02:57:20;;;;;;;6.97;2.15;;;;;;;4.18;69.59;100195.59;5114632;28;20055;-73
2021/03/15 03:00:27;;;;;;;4.38;2.30;;;;;;;4.23;69.77;100201.47;5098581;28;20046;-73
2021/03/15 03:03:32;;;;;;;4.03;2.00;;;;;;;4.22;69.73;100199.75;5113015;28;20063;-72
2021/03/15 03:06:39;;;;;;;5.05;2.08;;;;;;;4.26;69.44;100197.78;5114159;28;20398;-73
2021/03/15 03:09:46;;;;;;;4.47;2.10;;;;;;;4.27;69.55;100204.81;5110708;28;20050;-73
2021/03/15 03:12:51;;;;;;;6.32;2.58;;;;;;;4.18;69.91;100197.41;5112593;28;20513;-73
2021/03/15 03:15:58;;;;;;;4.47;2.20;;;;;;;4.14;69.94;100188.81;5113986;28;20058;-72
2021/03/15 03:19:04;;;;;;;4.07;1.80;;;;;;;4.18;69.64;100200.91;5110106;28;20043;-72
2021/03/15 03:22:10;;;;;;;3.92;1.70;;;;;;;4.25;69.63;100204.03;5112001;28;20050;-72
2021/03/15 03:25:19;;;;;;;6.57;2.00;;;;;;;4.27;69.49;100204.81;5113202;28;20047;-74
2021/03/15 03:28:25;;;;;;;4.50;1.85;;;;;;;4.26;69.41;100205.75;5110272;28;20054;-73
2021/03/15 03:31:36;;;;;;;6.65;2.42;;;;;;;4.24;69.39;100203.19;5111892;28;20043;-73
2021/03/15 03:34:41;;;;;;;6.57;2.30;;;;;;;4.19;69.21;100199.13;5109724;28;20051;-72
2021/03/15 03:37:45;;;;;;;4.25;2.10;;;;;;;4.17;68.08;100201.88;5110786;28;20047;-74
2021/03/15 03:40:50;;;;;;;5.82;1.83;;;;;;;4.10;68.27;100192.59;5111111;28;20047;-72
2021/03/15 03:43:54;;;;;;;3.25;1.80;;;;;;;4.13;68.53;100195.06;5113319;28;20046;-75
2021/03/15 03:46:58;;;;;;;3.40;2.00;;;;;;;4.15;68.52;100190.47;5108579;28;20041;-73
2021/03/15 03:50:06;;;;;;;5.18;1.70;;;;;;;4.10;68.26;100189.94;5109602;28;20059;-73
2021/03/15 03:53:15;;;;;;;3.65;1.65;;;;;;;4.05;68.12;100188.53;5099333;28;20410;-73
2021/03/15 03:56:34;;;;;;;4.65;2.03;;;;;;;4.04;68.18;100193.00;5108554;28;20042;-72
2021/03/15 03:59:47;;;;;;;4.05;1.60;;;;;;;4.04;68.16;100185.03;5113908;28;20509;-73
2021/03/15 04:02:54;;;;;;;4.35;1.77;;;;;;;4.06;67.78;100180.47;5111591;28;20517;-74
2021/03/15 04:06:04;;;;;;;4.53;1.70;;;;;;;3.94;68.19;100170.63;5108045;28;20398;-71
2021/03/15 04:09:15;;;;;;;4.13;2.13;;;;;;;3.92;68.50;100172.53;5111013;28;20047;-71
2021/03/15 04:12:22;;;;;;;3.70;1.90;;;;;;;3.96;69.00;100171.38;5108382;28;20047;-73
2021/03/15 04:15:29;;;;;;;6.28;2.20;;;;;;;3.84;69.60;100167.69;5110451;28;20043;-71
2021/03/15 04:18:42;;;;;;;5.10;2.55;;;;;;;3.80;70.03;100165.34;5112542;28;20056;-75
2021/03/15 04:21:51;;;;;;;12.10;2.50;;;;;;;3.82;69.74;100174.91;5097963;28;20043;-74
2021/03/15 04:24:58;;;;;;;9.23;1.90;;;;;;;3.82;69.53;100159.00;5112573;28;20515;-71
2021/03/15 04:28:04;;;;;;;8.20;2.20;;;;;;;3.76;69.30;100158.50;5108833;28;20058;-72
2021/03/15 04:31:10;;;;;;;5.38;1.50;;;;;;;3.78;69.27;100161.91;5110662;28;20051;-72
2021/03/15 04:34:15;;;;;;;5.90;2.00;;;;;;;3.81;69.21;100153.75;5104175;28;20055;-73
2021/03/15 04:37:22;;;;;;;4.00;1.80;;;;;;;3.81;69.41;100156.41;5106200;28;20047;-72
2021/03/15 04:40:28;;;;;;;7.30;2.22;;;;;;;3.81;69.42;100153.75;5102069;28;20107;-72
2021/03/15 04:43:34;;;;;;;4.38;1.95;;;;;;;3.84;69.05;100157.09;5111769;28;20054;-72
2021/03/15 04:46:40;;;;;;;7.13;2.20;;;;;;;3.83;68.81;100158.03;5113016;28;20047;-71
2021/03/15 04:49:48;;;;;;;9.35;2.75;;;;;;;3.83;68.88;100154.50;5109132;28;20057;-74
2021/03/15 04:52:54;;;;;;;4.55;2.00;;;;;;;3.86;68.68;100151.66;5100931;28;20059;-72
2021/03/15 04:56:02;;;;;;;5.15;2.05;;;;;;;3.86;68.26;100159.63;5116996;28;20038;-74
2021/03/15 04:59:11;;;;;;;4.30;1.80;;;;;;;3.93;68.11;100163.59;5113991;28;20047;-72
2021/03/15 05:02:25;;;;;;;5.78;2.03;;;;;;;3.93;67.56;100163.59;5114498;28;20047;-73
2021/03/15 05:05:32;;;;;;;4.00;1.80;;;;;;;3.94;67.16;100165.31;5106403;28;20039;-71
2021/03/15 05:08:47;;;;;;;5.55;2.08;;;;;;;3.93;67.28;100158.28;5116041;28;20058;-71
2021/03/15 05:11:51;;;;;;;5.88;2.20;;;;;;;3.95;67.66;100167.00;5114804;28;20054;-73
2021/03/15 05:14:56;;;;;;;6.10;2.13;;;;;;;3.87;68.43;100156.03;5115972;28;20039;-76
2021/03/15 05:18:02;;;;;;;5.45;2.03;;;;;;;3.81;68.63;100164.38;5098659;28;20039;-74
2021/03/15 05:21:07;;;;;;;7.82;1.98;;;;;;;3.78;68.68;100168.06;5098322;28;20393;-74
2021/03/15 05:24:12;;;;;;;6.38;2.30;;;;;;;3.75;69.27;100175.41;5102462;28;20058;-73
2021/03/15 05:27:17;;;;;;;5.05;2.20;;;;;;;3.72;69.42;100176.44;5109304;28;20043;-75
2021/03/15 05:30:22;;;;;;;10.88;3.10;;;;;;;3.74;69.27;100173.69;5096851;28;20043;-74
2021/03/15 05:33:30;;;;;;;7.45;3.00;;;;;;;3.79;69.16;100171.59;5112921;28;20039;-73
2021/03/15 05:36:35;;;;;;;9.98;2.40;;;;;;;3.82;68.59;100182.03;5114987;28;20070;-72
2021/03/15 05:39:39;;;;;;;5.47;2.33;;;;;;;3.78;68.85;100177.84;5108389;28;20051;-73
2021/03/15 05:42:59;;;;;;;12.85;2.90;;;;;;;3.82;68.64;100174.91;5112282;28;20066;-76
2021/03/15 05:46:06;;;;;;;11.50;2.67;;;;;;;3.92;68.33;100165.41;5112041;28;20047;-72
2021/03/15 05:49:38;;;;;;;13.55;2.70;;;;;;;4.07;67.14;100163.59;5101445;28;20051;-73
2021/03/15 05:53:04;;;;;;;6.38;2.35;;;;;;;4.18;66.44;100158.41;5111528;28;20227;-74
2021/03/15 05:56:22;;;;;;;10.23;1.98;;;;;;;4.14;63.75;100150.75;5113140;28;20042;-73
2021/03/15 05:59:43;;;;;;;3.30;1.60;;;;;;;4.10;61.79;100158.06;5098738;28;20043;-71
2021/03/15 06:03:27;;;;;;;6.40;1.80;;;;;;;4.17;61.10;100148.78;5111829;28;20046;-73
2021/03/15 06:06:39;;;;;;;3.73;1.70;;;;;;;4.37;60.26;100148.28;5101337;28;20506;-75
2021/03/15 06:09:58;;;;;;;5.45;1.70;;;;;;;4.51;60.09;100139.44;5099000;28;20277;-72
2021/03/15 06:13:10;;;;;;;7.20;1.90;;;;;;;4.78;57.97;100148.22;5098666;28;20042;-73
2021/03/15 06:16:15;;;;;;;2.90;1.40;;;;;;;4.99;56.96;100144.09;5114440;28;20250;-73
2021/03/15 06:19:19;;;;;;;7.43;2.47;;;;;;;5.21;55.91;100133.66;5115357;28;20047;-72
2021/03/15 06:22:24;;;;;;;4.65;2.55;;;;;;;5.53;54.51;100138.56;5111348;28;20042;-75
2021/03/15 06:25:30;;;;;;;8.48;3.50;;;;;;;5.97;54.85;100130.97;5112237;28;20105;-72
2021/03/15 06:28:34;;;;;;;4.35;1.30;;;;;;;6.28;51.03;100126.88;5101480;28;20074;-78
2021/03/15 06:31:44;;;;;;;3.97;1.52;;;;;;;6.61;48.78;100124.41;5115160;28;20394;-71
2021/03/15 06:34:48;;;;;;;4.80;1.63;;;;;;;7.01;46.78;100123.03;5112296;28;20410;-75
2021/03/15 06:37:54;;;;;;;4.07;1.52;;;;;;;7.15;45.83;100127.34;5113388;28;20580;-74
2021/03/15 06:41:05;;;;;;;4.72;1.20;;;;;;;7.39;45.66;100130.75;5114825;28;20042;-74
2021/03/15 06:44:10;;;;;;;4.00;1.42;;;;;;;7.96;44.09;100135.97;5112437;28;20050;-72
2021/03/15 06:47:14;;;;;;;3.38;1.20;;;;;;;8.47;42.20;100145.13;5115831;28;20050;-72
2021/03/15 06:50:20;;;;;;;4.88;1.20;;;;;;;9.13;41.08;100135.94;5115303;28;20058;-72
2021/03/15 06:53:35;;;;;;;9.73;1.40;;;;;;;9.42;40.25;100133.44;5115558;28;20105;-76
2021/03/15 06:56:39;;;;;;;8.45;2.05;;;;;;;9.79;39.53;100139.97;5115476;28;20524;-73
2021/03/15 06:59:59;;;;;;;27.75;18.92;;;;;;;10.19;38.55;100141.84;5115819;28;20055;-75
2021/03/15 07:03:04;;;;;;;74.70;51.28;;;;;;;10.50;38.22;100147.94;5098427;28;20040;-77
2021/03/15 07:06:10;;;;;;;17.15;8.63;;;;;;;11.15;35.94;100155.31;5115545;28;20043;-76
2021/03/15 07:09:16;;;;;;;9.82;2.70;;;;;;;11.32;36.03;100154.59;5115497;28;20062;-74
2021/03/15 07:12:22;;;;;;;8.73;1.73;;;;;;;12.53;33.92;100143.63;5115460;28;20071;-77
2021/03/15 07:15:33;;;;;;;8.05;1.60;;;;;;;13.23;32.77;100150.88;5115335;28;20054;-74
2021/03/15 07:18:37;;;;;;;5.70;1.73;;;;;;;12.79;33.66;100154.47;5110887;28;20410;-80
2021/03/15 07:21:42;;;;;;;6.25;1.50;;;;;;;13.62;32.88;100157.56;5115586;28;20524;-77
2021/03/15 07:25:01;;;;;;;14.68;2.00;;;;;;;14.50;31.75;100155.44;5084884;28;20055;-76
2021/03/15 07:28:06;;;;;;;13.35;4.07;;;;;;;16.35;29.73;100168.03;5093851;28;20071;-78
2021/03/15 07:31:19;;;;;;;11.43;2.15;;;;;;;17.67;27.25;100158.66;5093940;28;20047;-78
2021/03/15 07:34:24;;;;;;;12.77;1.50;;;;;;;19.03;25.87;100156.09;5094168;28;20047;-74
2021/03/15 07:37:29;;;;;;;8.10;1.50;;;;;;;20.59;24.39;100155.56;5094285;28;20510;-74
2021/03/15 07:40:43;;;;;;;18.83;1.73;;;;;;;21.73;23.14;100157.25;5081659;28;20043;-77
2021/03/15 07:43:48;;;;;;;34.42;2.10;;;;;;;23.76;20.34;100148.13;5094273;28;20051;-76
2021/03/15 07:47:00;;;;;;;39.25;2.95;;;;;;;27.69;16.75;100144.19;5093774;28;20067;-75
2021/03/15 07:50:07;;;;;;;38.53;2.80;;;;;;;30.12;14.75;100134.84;5093874;28;20067;-75
2021/03/15 07:53:13;;;;;;;18.65;2.15;;;;;;;30.63;14.25;100147.06;5094030;28;20274;-76
2021/03/15 07:56:20;;;;;;;12.30;1.50;;;;;;;31.71;13.30;100136.78;5081417;28;20051;-78
2021/03/15 07:59:24;;;;;;;10.45;0.95;;;;;;;36.98;10.72;100132.44;5094156;28;20415;-79
2021/03/15 08:02:31;;;;;;;3.72;0.55;;;;;;;38.45;10.29;100135.97;5091073;28;20786;-80
2021/03/15 08:05:36;;;;;;;3.80;0.70;;;;;;;39.53;9.08;100130.44;5093772;28;20063;-80
2021/03/15 08:08:40;;;;;;;1.50;0.90;;;;;;;42.52;8.19;100129.66;5093543;28;20505;-81
2021/03/15 08:11:44;;;;;;;4.75;1.42;;;;;;;43.80;8.21;100124.81;5093705;28;20043;-79
2021/03/15 08:14:56;;;;;;;3.78;0.80;;;;;;;44.43;7.12;100110.72;5093494;28;20055;-77
2021/03/15 08:18:02;;;;;;;2.53;0.65;;;;;;;44.57;6.89;100111.09;5069437;28;20051;-78
2021/03/15 08:21:12;;;;;;;2.53;0.52;;;;;;;43.88;7.41;100112.50;5093592;28;20047;-76
2021/03/15 08:24:17;;;;;;;5.88;0.60;;;;;;;37.90;9.29;100115.88;5093350;28;20415;-74
2021/03/15 08:27:25;;;;;;;5.15;1.10;;;;;;;34.06;11.01;100115.63;5084919;28;20051;-74
2021/03/15 08:30:33;;;;;;;3.58;0.60;;;;;;;36.36;10.59;100114.41;5073596;28;20047;-74
2021/03/15 08:33:39;;;;;;;6.40;0.70;;;;;;;33.72;11.79;100109.25;5085634;28;20051;-75
2021/03/15 08:36:45;;;;;;;3.47;0.57;;;;;;;35.48;10.53;100106.22;5098166;28;20055;-72
2021/03/15 08:39:50;;;;;;;2.95;0.90;;;;;;;33.84;11.77;100106.91;5085008;28;20047;-74
2021/03/15 08:43:18;;;;;;;2.15;0.73;;;;;;;32.73;12.38;100105.72;5097748;28;20517;-74
2021/03/15 08:46:22;;;;;;;3.90;0.52;;;;;;;35.11;11.60;100087.53;5097106;28;20043;-74
2021/03/15 08:49:31;;;;;;;7.45;0.50;;;;;;;37.66;10.10;100091.00;5084940;28;20051;-73
2021/03/15 08:52:36;;;;;;;2.53;0.60;;;;;;;39.01;9.65;100084.63;5084638;28;20047;-80
2021/03/15 08:55:48;;;;;;;12.93;1.63;;;;;;;40.69;8.82;100078.47;5097151;28;20059;-80
2021/03/15 08:58:53;;;;;;;4.13;0.60;;;;;;;39.83;8.87;100070.38;5096618;28;20055;-77
2021/03/15 09:02:01;;;;;;;2.20;0.40;;;;;;;40.23;8.46;100062.47;5096646;28;20506;-74
2021/03/15 09:05:43;;;;;;;1.38;0.40;;;;;;;39.69;8.63;100054.88;5095886;28;20051;-74
2021/03/15 09:09:10;;;;;;;2.35;0.43;;;;;;;39.69;8.73;100052.88;5015468;28;20053;-73
2021/03/15 09:12:17;;;;;;;1.25;0.50;;;;;;;40.03;7.82;100046.34;5015753;28;20490;-75
2021/03/15 09:15:34;;;;;;;1.42;0.38;;;;;;;39.41;7.87;100043.16;5015016;28;20053;-72
2021/03/15 09:18:40;;;;;;;4.90;0.50;;;;;;;39.39;8.31;100035.06;5015296;28;20049;-72
2021/03/15 09:21:55;;;;;;;2.92;0.45;;;;;;;38.67;8.49;100025.59;5015210;28;20581;-72
2021/03/15 09:25:00;;;;;;;3.30;1.33;;;;;;;38.38;8.57;100012.19;5015226;28;20061;-78
2021/03/15 09:28:04;;;;;;;2.72;0.60;;;;;;;37.50;9.46;100016.91;5015070;28;20068;-73
2021/03/15 09:31:09;;;;;;;1.98;0.45;;;;;;;34.89;10.22;100028.69;5021588;28;20057;-74
2021/03/15 09:34:14;;;;;;;2.33;0.50;;;;;;;31.83;11.13;100025.44;5030670;28;20053;-73
2021/03/15 09:37:18;;;;;;;3.40;0.57;;;;;;;28.58;12.84;100033.63;5021761;28;20044;-75
2021/03/15 09:40:26;;;;;;;2.20;0.50;;;;;;;26.44;14.98;100027.78;5022874;28;20048;-72
2021/03/15 09:43:32;;;;;;;2.03;0.40;;;;;;;24.35;16.37;100039.69;5041780;28;20172;-72
2021/03/15 09:46:39;;;;;;;1.52;0.45;;;;;;;23.39;16.75;100036.75;5116742;28;20093;-78
2021/03/15 09:49:44;;;;;;;2.53;0.50;;;;;;;22.36;17.93;100040.84;5103571;28;20429;-73
2021/03/15 09:53:12;;;;;;;1.90;0.60;;;;;;;20.92;19.71;100037.50;5092422;28;20051;-78
2021/03/15 09:56:26;;;;;;;23.20;1.48;;;;;;;20.38;21.92;100041.19;5117121;28;20058;-77
2021/03/15 09:59:38;;;;;;;2.08;0.60;;;;;;;20.07;21.31;100036.22;5116699;28;20046;-75
2021/03/15 10:02:45;;;;;;;3.95;0.60;;;;;;;19.71;21.66;100045.69;5104189;28;20039;-73
2021/03/15 10:06:23;;;;;;;4.13;0.70;;;;;;;19.51;22.07;100047.44;5077446;28;20390;-77
2021/03/15 10:09:40;;;;;;;2.38;0.60;;;;;;;19.02;22.85;100034.72;5093317;28;20051;-73
2021/03/15 10:13:08;;;;;;;2.30;0.77;;;;;;;18.21;23.73;100035.13;5116529;28;20378;-76
2021/03/15 10:17:20;;;;;;;3.25;0.52;;;;;;;17.90;21.05;100026.41;5115905;28;20071;-74
2021/03/15 10:20:46;;;;;;;;;;;;;;;17.74;22.06;100027.44;5003699;28;20049;-77
2021/03/15 10:23:52;;;;;;;1.55;0.60;;;;;;;17.68;22.21;100016.50;5002668;28;20296;-74
2021/03/15 10:26:56;;;;;;;3.53;0.60;;;;;;;17.74;22.51;100011.13;5002611;28;20052;-74
2021/03/15 10:30:08;;;;;;;2.45;0.77;;;;;;;17.51;22.56;100011.22;5002641;28;20492;-75
2021/03/15 10:33:19;;;;;;;1.05;0.40;;;;;;;17.23;20.74;100010.16;5013764;28;20049;-74
2021/03/15 10:36:27;;;;;;;3.60;0.60;;;;;;;17.24;22.51;99992.88;5002593;28;20498;-74
2021/03/15 10:39:56;;;;;;;0.60;0.30;;;;;;;17.22;19.91;99973.22;5013669;28;20069;-73
2021/03/15 10:43:06;;;;;;;1.05;0.40;;;;;;;16.89;20.17;99980.84;5002519;28;20069;-75
2021/03/15 10:46:18;;;;;;;1.80;0.47;;;;;;;16.90;20.18;99979.84;4963408;28;20053;-75
2021/03/15 10:49:27;;;;;;;2.72;0.40;;;;;;;16.95;21.01;99976.56;4973621;28;20058;-75
2021/03/15 10:52:44;;;;;;;0.98;0.40;;;;;;;17.10;21.50;99973.88;4988855;28;20053;-76
2021/03/15 10:55:56;;;;;;;1.15;0.40;;;;;;;17.11;20.44;99964.72;5053199;28;20048;-78
2021/03/15 10:59:05;;;;;;;5.18;0.60;;;;;;;17.00;21.90;99957.88;5074205;28;20055;-79
2021/03/15 11:02:25;;;;;;;1.45;0.63;;;;;;;17.06;21.32;99967.13;5074616;28;20395;-75
2021/03/15 11:05:41;;;;;;;;;;;;;;;17.00;20.81;99957.88;5074497;28;20056;-78
2021/03/15 11:08:55;;;;;;;;;;;;;;;16.65;20.80;99962.09;5062502;28;19916;-77
2021/03/15 11:12:01;;;;;;;1.63;0.50;;;;;;;16.65;21.08;99964.81;5074725;28;19916;-76
2021/03/15 11:15:12;;;;;;;1.13;0.50;;;;;;;16.55;21.49;99960.66;5073947;28;20059;-76
2021/03/15 11:18:25;;;;;;;2.00;0.40;;;;;;;16.66;21.22;99949.41;5062706;28;20051;-78
2021/03/15 11:21:39;;;;;;;1.00;0.43;;;;;;;16.76;22.08;99939.97;5073774;28;20499;-78
2021/03/15 11:25:28;;;;;;;3.22;0.35;;;;;;;17.11;21.94;99927.56;5063104;28;20047;-76
2021/03/15 11:28:40;;;;;;;1.50;0.40;;;;;;;17.37;21.45;99925.22;5001184;28;20149;-76
2021/03/15 11:31:50;;;;;;;1.40;0.40;;;;;;;17.50;21.01;99922.66;5012857;28;20557;-76
2021/03/15 11:34:54;;;;;;;1.33;0.40;;;;;;;17.40;21.56;99905.88;5000800;28;20064;-76
2021/03/15 11:38:04;;;;;;;0.90;0.30;;;;;;;17.30;21.53;99908.03;5001405;28;20052;-75
2021/03/15 11:41:25;;;;;;;1.13;0.40;;;;;;;17.09;21.05;99901.66;5001003;28;20134;-78
2021/03/15 11:44:30;;;;;;;1.25;0.30;;;;;;;17.13;22.28;99895.69;4981597;28;20069;-74
2021/03/15 11:47:34;;;;;;;1.67;0.40;;;;;;;17.14;21.74;99894.66;5005591;28;20061;-73
2021/03/15 11:51:11;;;;;;;2.10;0.60;;;;;;;17.20;22.54;99874.94;5008634;28;20048;-76
2021/03/15 11:54:26;;;;;;;2.42;0.70;;;;;;;17.59;21.30;99871.03;5020343;28;20396;-76
2021/03/15 11:57:31;;;;;;;1.08;0.43;;;;;;;17.88;20.66;99862.78;5021007;28;20133;-74
2021/03/15 12:00:36;;;;;;;1.45;0.50;;;;;;;18.04;20.87;99862.53;5030978;28;20064;-74
2021/03/15 12:04:00;;;;;;;1.83;0.50;;;;;;;18.15;20.91;99860.13;5093375;28;20051;-74
2021/03/15 12:07:17;;;;;;;2.72;0.60;;;;;;;18.12;20.95;99857.00;5093464;28;20407;-74
2021/03/15 12:10:34;;;;;;;1.40;0.50;;;;;;;18.20;21.32;99859.53;5094096;28;20054;-74
2021/03/15 12:13:41;;;;;;;1.65;0.68;;;;;;;18.41;21.97;99840.50;5092793;28;20066;-75
2021/03/15 12:16:48;;;;;;;4.85;0.50;;;;;;;18.52;21.62;99839.97;5093204;28;20387;-76
2021/03/15 12:19:53;;;;;;;3.60;0.70;;;;;;;18.52;22.18;99837.25;5093224;28;20078;-75
2021/03/15 12:23:14;;;;;;;1.35;0.40;;;;;;;18.48;21.52;99830.56;5084015;28;20391;-75
2021/03/15 12:26:20;;;;;;;3.15;0.98;;;;;;;18.21;21.50;99823.19;5093190;28;20051;-77
2021/03/15 12:29:32;;;;;;;4.07;0.65;;;;;;;18.24;21.91;99822.81;5093939;28;20494;-74
2021/03/15 12:32:37;;;;;;;3.90;0.57;;;;;;;18.29;22.03;99820.34;5081740;28;20047;-73
2021/03/15 12:35:43;;;;;;;3.10;0.63;;;;;;;18.37;22.24;99817.47;5093137;28;20047;-75
2021/03/15 12:38:47;;;;;;;6.97;0.90;;;;;;;18.12;22.41;99822.50;5093220;28;20051;-77
2021/03/15 12:41:52;;;;;;;1.88;0.60;;;;;;;17.95;22.41;99817.53;5081091;28;20043;-75
2021/03/15 12:45:00;;;;;;;1.00;0.40;;;;;;;17.80;23.18;99814.06;5092956;28;20051;-75
2021/03/15 12:48:10;;;;;;;2.75;0.43;;;;;;;17.57;23.70;99808.81;5093014;28;20043;-75
2021/03/15 12:51:15;;;;;;;4.10;0.80;;;;;;;17.55;24.13;99816.31;5092218;28;20055;-76
2021/03/15 12:54:19;;;;;;;2.45;0.70;;;;;;;17.43;23.85;99813.22;5092724;28;20506;-75
2021/03/15 12:57:33;;;;;;;2.75;0.60;;;;;;;17.28;23.40;99804.25;5093548;28;20047;-75
2021/03/15 13:00:42;;;;;;;3.28;0.50;;;;;;;17.24;24.18;99797.56;5093329;28;20047;-74
2021/03/15 13:03:58;;;;;;;3.13;0.70;;;;;;;17.13;24.14;99795.34;5092861;28;20047;-73
2021/03/15 13:07:09;;;;;;;5.22;0.50;;;;;;;17.06;23.87;99790.88;5092789;28;20402;-74
2021/03/15 13:10:25;;;;;;;2.08;0.75;;;;;;;17.08;24.37;99781.53;5092780;28;20055;-75
2021/03/15 13:13:33;;;;;;;8.88;1.77;;;;;;;16.90;24.34;99776.50;5096918;28;20051;-75
2021/03/15 13:16:38;;;;;;;2.85;0.70;;;;;;;16.98;25.12;99769.28;5096517;28;20054;-75
2021/03/15 13:19:42;;;;;;;1.20;0.60;;;;;;;16.98;24.31;99756.56;5096410;28;20059;-74
2021/03/15 13:22:47;;;;;;;2.65;0.60;;;;;;;17.05;24.20;99745.78;5084717;28;20055;-74
2021/03/15 13:25:59;;;;;;;3.95;0.77;;;;;;;17.02;24.46;99744.31;5097002;28;20051;-74
2021/03/15 13:29:15;;;;;;;5.18;0.70;;;;;;;17.08;24.23;99740.00;5096167;28;20051;-75
2021/03/15 13:32:20;;;;;;;4.28;1.02;;;;;;;17.16;24.87;99738.00;5096057;28;20051;-74
2021/03/15 13:35:25;;;;;;;2.15;0.70;;;;;;;17.18;24.84;99738.66;5095655;28;20035;-77
2021/03/15 13:38:32;;;;;;;1.75;0.70;;;;;;;17.21;24.22;99737.41;5090128;28;20055;-78
2021/03/15 13:41:39;;;;;;;3.78;1.00;;;;;;;17.23;24.11;99730.75;5095891;28;20398;-78
2021/03/15 13:44:52;;;;;;;4.10;1.15;;;;;;;17.36;24.58;99744.47;5085366;28;20387;-78
2021/03/15 13:47:56;;;;;;;5.30;0.60;;;;;;;17.32;23.56;99745.06;5095822;28;20410;-77
2021/03/15 13:51:05;;;;;;;2.45;0.77;;;;;;;17.26;23.55;99732.25;5095084;28;20055;-77
2021/03/15 13:54:12;;;;;;;2.55;0.68;;;;;;;17.30;23.97;99739.84;5091151;28;20118;-80
2021/03/15 13:57:18;;;;;;;1.58;0.70;;;;;;;17.40;23.28;99726.78;5095830;28;20379;-77
2021/03/15 14:00:38;;;;;;;1.73;0.60;;;;;;;17.55;22.81;99726.75;5083900;28;20494;-78
2021/03/15 14:04:15;;;;;;;2.20;0.60;;;;;;;17.63;23.10;99723.88;5033642;28;20411;-76
2021/03/15 14:07:33;;;;;;;4.82;0.90;;;;;;;17.49;22.91;99730.19;5022091;28;20492;-76
2021/03/15 14:10:45;;;;;;;5.38;0.85;;;;;;;17.38;23.04;99728.03;4983386;28;20138;-79
2021/03/15 14:13:54;;;;;;;3.05;0.68;;;;;;;17.23;22.46;99713.66;4983460;28;20425;-78
2021/03/15 14:16:58;;;;;;;3.40;0.90;;;;;;;17.11;23.29;99731.47;4983469;28;20536;-79
2021/03/15 14:20:06;;;;;;;2.90;0.55;;;;;;;17.03;23.23;99726.16;4983208;28;20386;-77
2021/03/15 14:23:14;;;;;;;2.50;0.65;;;;;;;17.00;23.71;99724.69;5022771;28;20064;-73
2021/03/15 14:26:19;;;;;;;7.70;0.95;;;;;;;16.86;23.82;99709.28;5019550;28;20153;-80
2021/03/15 14:29:28;;;;;;;10.50;1.40;;;;;;;16.91;24.34;99713.09;5022247;28;20496;-77
2021/03/15 14:32:47;;;;;;;5.47;0.95;;;;;;;16.92;24.50;99708.53;5033453;28;20160;-79
2021/03/15 14:36:04;;;;;;;4.15;0.70;;;;;;;16.96;23.29;99701.66;5010976;28;20064;-77
2021/03/15 14:39:17;;;;;;;1.80;0.63;;;;;;;16.95;22.94;99702.72;5053089;28;20059;-77
2021/03/15 14:42:22;;;;;;;2.58;0.60;;;;;;;16.94;23.12;99705.63;5094832;28;20047;-77
2021/03/15 14:45:35;;;;;;;1.70;0.60;;;;;;;16.87;23.33;99697.41;5094785;28;20047;-77
2021/03/15 14:48:44;;;;;;;4.45;0.70;;;;;;;16.88;23.74;99701.81;5094703;28;20047;-75
2021/03/15 14:51:56;;;;;;;1.95;0.60;;;;;;;16.85;24.42;99694.91;5094026;28;20052;-75